Time;durP1;ratioP1;P1;durP2;ratioP2;P2;SDS_P1;SDS_P2;PMS_P1;PMS_P2;Temp;Humidity;BMP_temperature;BMP_pressure;BME280_temperature;BME280_humidity;BME280_pressure;Samples;Min_cycle;Max_cycle;Signal;HPM_P1;HPM_P2
2021/07/25 00:00:16;;;;;;;5.68;5.07;;;26.30;48.30;;;-147.20;100.00;58430.41;5113221;28;20042;-49
2021/07/25 00:02:42;;;;;;;5.82;5.22;;;26.30;48.30;;;-147.20;100.00;58430.41;5112955;28;20161;-50
2021/07/25 00:05:09;;;;;;;6.18;5.28;;;26.20;48.20;;;-147.20;100.00;58430.41;5113471;28;20044;-51
2021/07/25 00:07:35;;;;;;;5.32;4.82;;;26.20;48.30;;;-147.20;100.00;58430.41;5113347;28;20051;-54
2021/07/25 00:10:05;;;;;;;5.00;4.32;;;26.20;48.30;;;-147.20;100.00;58430.41;5113221;28;20108;-52
2021/07/25 00:12:31;;;;;;;5.15;4.65;;;26.20;48.30;;;-147.20;100.00;58430.41;5113073;28;20043;-50
2021/07/25 00:14:57;;;;;;;5.47;4.90;;;26.20;48.30;;;-147.20;100.00;58430.41;5094849;28;20058;-49
2021/07/25 00:17:23;;;;;;;5.55;5.05;;;26.20;48.40;;;-147.20;100.00;58430.41;5113078;28;20058;-52
2021/07/25 00:19:49;;;;;;;5.20;4.68;;;26.20;48.40;;;-147.20;100.00;58430.41;5112987;28;20043;-53
2021/07/25 00:22:15;;;;;;;5.55;4.63;;;26.10;48.30;;;-147.20;100.00;58430.41;5113029;28;20527;-53
2021/07/25 00:24:49;;;;;;;5.00;4.53;;;26.20;48.40;;;-147.20;100.00;58430.41;5113035;28;20081;-52
2021/07/25 00:27:15;;;;;;;5.53;4.65;;;26.20;48.40;;;-147.20;100.00;58430.41;5096264;28;20055;-49
2021/07/25 00:29:40;;;;;;;6.05;4.65;;;26.10;48.30;;;-147.20;100.00;58430.41;5093312;28;20052;-50
2021/07/25 00:32:08;;;;;;;6.47;5.10;;;26.10;48.30;;;-147.20;100.00;58430.41;5112921;28;20506;-54
2021/07/25 00:34:35;;;;;;;5.32;4.82;;;26.10;48.40;;;-147.20;100.00;58430.41;5094749;28;20048;-52
2021/07/25 00:37:03;;;;;;;5.63;5.13;;;26.10;48.40;;;-147.20;100.00;58430.41;5112812;28;20135;-53
2021/07/25 00:39:30;;;;;;;5.65;5.07;;;26.10;48.30;;;-147.20;100.00;58430.41;5113408;28;20063;-47
2021/07/25 00:41:56;;;;;;;5.80;4.70;;;26.10;48.40;;;-147.20;100.00;58430.41;5112758;28;20044;-52
2021/07/25 00:44:21;;;;;;;6.32;5.07;;;26.10;48.30;;;-147.20;100.00;58430.41;5112828;28;20055;-50
2021/07/25 00:46:58;;;;;;;5.43;4.93;;;26.10;48.90;;;-147.20;100.00;58430.41;5112688;28;20048;-53
2021/07/25 00:49:25;;;;;;;5.38;4.88;;;26.10;48.40;;;-147.20;100.00;58430.41;5112667;28;20052;-52
2021/07/25 00:51:52;;;;;;;5.45;4.80;;;26.10;48.40;;;-147.20;100.00;58430.41;5113006;28;20126;-51
2021/07/25 00:54:19;;;;;;;5.43;4.38;;;26.10;48.30;;;-147.20;100.00;58430.41;5112899;28;20122;-50
2021/07/25 00:56:45;;;;;;;6.85;5.28;;;26.10;48.30;;;-147.20;100.00;58430.41;5094308;28;20044;-51
2021/07/25 00:59:11;;;;;;;5.25;4.75;;;26.10;48.30;;;-147.20;100.00;58430.41;5112478;28;20040;-47
2021/07/25 01:01:37;;;;;;;5.63;4.82;;;26.10;48.40;;;-147.20;100.00;58430.41;5113136;28;20475;-54
2021/07/25 01:04:52;;;;;;;4.88;4.38;;;26.10;48.40;;;-147.20;100.00;58430.41;5112606;28;20055;-52
2021/07/25 01:07:34;;;;;;;4.78;4.28;;;26.10;48.40;;;-147.20;100.00;58430.41;5100935;28;20426;-53
2021/07/25 01:10:18;;;;;;;5.82;5.22;;;26.10;48.40;;;-147.20;100.00;58430.41;5094170;28;20480;-49
2021/07/25 01:12:57;;;;;;;5.25;4.70;;;26.10;48.40;;;-147.20;100.00;58430.41;5112741;28;20093;-49
2021/07/25 01:15:28;;;;;;;4.97;4.47;;;26.10;48.40;;;-147.20;100.00;58430.41;5096720;28;20097;-50
2021/07/25 01:17:54;;;;;;;4.80;4.37;;;26.00;48.40;;;-147.20;100.00;58430.41;5098206;28;20520;-53
2021/07/25 01:20:21;;;;;;;5.13;4.63;;;26.00;48.40;;;-147.20;100.00;58430.41;5115886;28;20286;-48
2021/07/25 01:22:49;;;;;;;4.90;4.40;;;26.00;48.50;;;-147.20;100.00;58430.41;5115871;28;20047;-52
2021/07/25 01:25:17;;;;;;;5.55;4.90;;;26.00;48.50;;;-147.20;100.00;58430.41;5115697;28;20392;-52
2021/07/25 01:28:04;;;;;;;5.22;4.03;;;26.00;48.40;;;-147.20;100.00;58430.41;5094202;28;20499;-52
2021/07/25 01:30:34;;;;;;;5.90;4.85;;;26.00;48.50;;;-147.20;100.00;58430.41;5116298;28;20100;-50
2021/07/25 01:33:08;;;;;;;7.30;5.00;;;26.00;48.50;;;-147.20;100.00;58430.41;5115811;28;20407;-51
2021/07/25 01:35:34;;;;;;;4.80;4.40;;;26.00;48.50;;;-147.20;100.00;58430.41;5115742;28;20505;-51
2021/07/25 01:38:01;;;;;;;4.57;4.18;;;26.00;48.50;;;-147.20;100.00;58430.41;5097297;28;20052;-49
2021/07/25 01:40:27;;;;;;;5.75;5.10;;;26.00;48.50;;;-147.20;100.00;58430.41;5115540;28;20184;-52
2021/07/25 01:42:56;;;;;;;5.20;4.70;;;26.00;48.50;;;-147.20;100.00;58430.41;5115877;28;20079;-52
2021/07/25 01:45:22;;;;;;;5.07;4.57;;;26.00;48.50;;;-147.20;100.00;58430.41;5115450;28;20081;-52
2021/07/25 01:47:48;;;;;;;5.10;4.60;;;26.00;48.60;;;-147.20;100.00;58430.41;5115764;28;20047;-51
2021/07/25 01:50:15;;;;;;;5.55;5.05;;;26.00;48.60;;;-147.20;100.00;58430.41;5115428;28;20043;-53
2021/07/25 01:52:41;;;;;;;5.22;4.70;;;26.00;48.60;;;-147.20;100.00;58430.41;5115393;28;20062;-51
2021/07/25 01:55:08;;;;;;;5.93;4.72;;;26.00;48.60;;;-147.20;100.00;58430.41;5115594;28;20043;-53
2021/07/25 01:57:33;;;;;;;4.45;4.05;;;26.00;48.60;;;-147.20;100.00;58430.41;5115359;28;20051;-51
2021/07/25 01:59:59;;;;;;;4.95;4.55;;;25.90;48.50;;;-147.20;100.00;58430.41;5115439;28;20467;-53
2021/07/25 02:02:25;;;;;;;4.72;4.32;;;25.90;48.60;;;-147.20;100.00;58430.41;5115559;28;20070;-52
2021/07/25 02:04:51;;;;;;;5.03;4.53;;;25.90;48.60;;;-147.20;100.00;58430.41;5115490;28;20483;-50
2021/07/25 02:07:17;;;;;;;4.88;4.40;;;25.90;48.60;;;-147.20;100.00;58430.41;5115681;28;20143;-52
2021/07/25 02:09:42;;;;;;;4.85;4.25;;;25.90;48.60;;;-147.20;100.00;58430.41;5115072;28;20069;-50
2021/07/25 02:12:10;;;;;;;5.43;4.60;;;25.90;48.60;;;-147.20;100.00;58430.41;5115614;28;20047;-50
2021/07/25 02:14:38;;;;;;;6.38;4.40;;;25.90;48.70;;;-147.20;100.00;58430.41;5114997;28;20046;-52
2021/07/25 02:17:06;;;;;;;4.72;4.28;;;25.90;48.70;;;-147.20;100.00;58430.41;5115044;28;20411;-49
2021/07/25 02:19:33;;;;;;;5.82;4.22;;;25.90;48.70;;;-147.20;100.00;58430.41;5114845;28;20544;-52
2021/07/25 02:21:58;;;;;;;5.00;4.50;;;25.90;48.70;;;-147.20;100.00;58430.41;5115237;28;20071;-51
2021/07/25 02:24:25;;;;;;;4.65;4.15;;;25.90;48.70;;;-147.20;100.00;58430.41;5114853;28;20089;-54
2021/07/25 02:26:52;;;;;;;4.57;4.18;;;25.80;48.70;;;-147.20;100.00;58430.41;5096106;28;20085;-52
2021/07/25 02:29:18;;;;;;;5.57;4.82;;;25.80;48.70;;;-147.20;100.00;58430.41;5114853;28;20040;-54
2021/07/25 02:31:44;;;;;;;5.00;4.60;;;25.80;48.70;;;-147.20;100.00;58430.41;5113321;28;20544;-52
2021/07/25 02:34:10;;;;;;;5.43;4.63;;;25.80;48.70;;;-147.20;100.00;58430.41;5114637;28;20096;-50
2021/07/25 02:36:36;;;;;;;5.13;4.63;;;25.80;48.80;;;-147.20;100.00;58430.41;5114627;28;20052;-48
2021/07/25 02:39:03;;;;;;;4.90;4.43;;;25.80;48.80;;;-147.20;100.00;58430.41;5115127;28;20460;-54
2021/07/25 02:41:29;;;;;;;4.72;4.22;;;25.80;48.70;;;-147.20;100.00;58430.41;5114670;28;20062;-51
2021/07/25 02:43:55;;;;;;;4.63;4.18;;;25.80;48.80;;;-147.20;100.00;58430.41;5114583;28;20414;-49
2021/07/25 02:46:22;;;;;;;4.82;4.30;;;25.80;48.80;;;-147.20;100.00;58430.41;5114484;28;20121;-49
2021/07/25 02:48:47;;;;;;;4.50;4.10;;;25.80;48.80;;;-147.20;100.00;58430.41;5114999;28;20044;-51
2021/07/25 02:51:14;;;;;;;5.82;4.50;;;25.80;48.90;;;-147.20;100.00;58430.41;5114178;28;20048;-51
2021/07/25 02:53:40;;;;;;;5.40;4.90;;;25.80;48.80;;;-147.20;100.00;58430.41;5114351;28;20055;-48
2021/07/25 02:56:06;;;;;;;4.25;3.85;;;25.80;48.90;;;-147.20;100.00;58430.41;5113010;28;20055;-50
2021/07/25 02:58:31;;;;;;;5.10;4.60;;;25.80;48.90;;;-147.20;100.00;58430.41;5114495;28;20048;-50
2021/07/25 03:00:57;;;;;;;5.05;4.55;;;25.80;48.90;;;-147.20;100.00;58430.41;5114775;28;20091;-47
2021/07/25 03:03:23;;;;;;;4.28;3.88;;;25.80;48.90;;;-147.20;100.00;58430.41;5114525;28;20059;-52
2021/07/25 03:05:49;;;;;;;5.57;4.95;;;25.70;48.90;;;-147.20;100.00;58430.41;5114090;28;20047;-51
2021/07/25 03:08:14;;;;;;;5.40;4.90;;;25.70;48.90;;;-147.20;100.00;58430.41;5114083;28;20083;-49
2021/07/25 03:10:41;;;;;;;5.10;4.60;;;25.70;49.00;;;-147.20;100.00;58430.41;5112740;28;20055;-51
2021/07/25 03:13:08;;;;;;;4.82;4.32;;;25.70;49.40;;;-147.20;100.00;58430.41;5114080;28;20047;-53
2021/07/25 03:15:33;;;;;;;4.60;4.20;;;25.70;48.90;;;-147.20;100.00;58430.41;5114121;28;20043;-50
2021/07/25 03:17:59;;;;;;;4.32;3.92;;;25.70;49.00;;;-147.20;100.00;58430.41;5114407;28;20058;-50
2021/07/25 03:20:28;;;;;;;5.05;4.60;;;25.70;49.00;;;-147.20;100.00;58430.41;5114275;28;20048;-53
2021/07/25 03:22:54;;;;;;;4.97;4.05;;;25.70;49.00;;;-147.20;100.00;58430.41;5114229;28;20437;-51
2021/07/25 03:25:20;;;;;;;5.03;4.32;;;25.70;49.00;;;-147.20;100.00;58430.41;5113885;28;20052;-52
2021/07/25 03:27:45;;;;;;;4.70;4.20;;;25.70;49.00;;;-147.20;100.00;58430.41;5114249;28;20398;-50
2021/07/25 03:30:12;;;;;;;4.57;4.18;;;25.70;49.00;;;-147.20;100.00;58430.41;5113721;28;20052;-50
2021/07/25 03:32:38;;;;;;;4.63;4.18;;;25.70;49.00;;;-147.20;100.00;58430.41;5113824;28;20043;-50
2021/07/25 03:35:04;;;;;;;5.15;4.40;;;25.60;49.00;;;-147.20;100.00;58430.41;5095375;28;20079;-51
2021/07/25 03:37:30;;;;;;;4.55;4.13;;;25.60;49.00;;;-147.20;100.00;58430.41;5113344;28;20083;-50
2021/07/25 03:39:56;;;;;;;4.13;3.72;;;25.60;49.00;;;-147.20;100.00;58430.41;5113378;28;20047;-51
2021/07/25 03:42:22;;;;;;;4.75;4.25;;;25.70;49.00;;;-147.20;100.00;58430.41;5113664;28;20058;-52
2021/07/25 03:44:48;;;;;;;5.07;4.57;;;25.60;49.00;;;-147.20;100.00;58430.41;5113944;28;20039;-51
2021/07/25 03:47:14;;;;;;;4.65;4.25;;;25.60;49.00;;;-147.20;100.00;58430.41;5113450;28;20042;-50
2021/07/25 03:49:40;;;;;;;4.13;3.75;;;25.60;49.00;;;-147.20;100.00;58430.41;5094574;28;20063;-51
2021/07/25 03:52:07;;;;;;;4.72;4.32;;;25.70;49.10;;;-147.20;100.00;58430.41;5113820;28;20047;-53
2021/07/25 03:54:34;;;;;;;4.68;4.22;;;25.60;49.00;;;-147.20;100.00;58430.41;5113506;28;20372;-47
2021/07/25 03:57:00;;;;;;;4.88;4.40;;;25.60;49.10;;;-147.20;100.00;58430.41;5113624;28;20380;-51
2021/07/25 03:59:26;;;;;;;4.30;3.90;;;25.60;49.10;;;-147.20;100.00;58430.41;5113355;28;20062;-49
2021/07/25 04:01:52;;;;;;;4.93;4.43;;;25.60;49.10;;;-147.20;100.00;58430.41;5111931;28;20403;-46
2021/07/25 04:04:17;;;;;;;4.38;3.92;;;25.60;49.10;;;-147.20;100.00;58430.41;5113684;28;20051;-47
2021/07/25 04:06:43;;;;;;;4.47;4.07;;;25.60;49.10;;;-147.20;100.00;58430.41;5113285;28;20043;-48
2021/07/25 04:09:09;;;;;;;4.30;3.90;;;25.60;49.10;;;-147.20;100.00;58430.41;5113121;28;20051;-49
2021/07/25 04:11:34;;;;;;;4.82;4.32;;;25.60;49.10;;;-147.20;100.00;58430.41;5113316;28;20108;-49
2021/07/25 04:14:00;;;;;;;4.85;4.35;;;25.60;49.10;;;-147.20;100.00;58430.41;5113410;28;20067;-45
2021/07/25 04:16:26;;;;;;;4.25;3.85;;;25.60;49.10;;;-147.20;100.00;58430.41;5113234;28;20456;-45
2021/07/25 04:18:52;;;;;;;4.63;4.22;;;25.60;49.00;;;-147.20;100.00;58430.41;5112890;28;20044;-46
2021/07/25 04:21:19;;;;;;;4.28;3.78;;;25.60;49.00;;;-147.20;100.00;58430.41;5112923;28;20043;-46
2021/07/25 04:23:45;;;;;;;4.13;3.72;;;25.60;49.00;;;-147.20;100.00;58430.41;5113327;28;20061;-45
2021/07/25 04:26:11;;;;;;;4.40;4.00;;;25.60;49.00;;;-147.20;100.00;58430.41;5113017;28;20047;-45
2021/07/25 04:28:38;;;;;;;4.93;4.53;;;25.60;49.00;;;-147.20;100.00;58430.41;5112827;28;20104;-48
2021/07/25 04:31:05;;;;;;;4.30;3.90;;;25.60;49.00;;;-147.20;100.00;58430.41;5112965;28;20453;-50
2021/07/25 04:33:32;;;;;;;4.68;4.28;;;25.60;49.00;;;-147.20;100.00;58430.41;5112778;28;20487;-49
2021/07/25 04:35:58;;;;;;;4.38;3.97;;;25.60;49.00;;;-147.20;100.00;58430.41;5112958;28;20072;-45
2021/07/25 04:38:24;;;;;;;4.88;4.32;;;25.60;49.00;;;-147.20;100.00;58430.41;5112773;28;20047;-45
2021/07/25 04:41:02;;;;;;;4.50;4.10;;;25.60;49.00;;;-147.20;100.00;58430.41;5112778;28;20044;-47
2021/07/25 04:43:30;;;;;;;4.38;3.97;;;25.60;49.00;;;-147.20;100.00;58430.41;5093560;28;20048;-45
2021/07/25 04:46:22;;;;;;;4.45;4.05;;;25.60;49.00;;;-147.20;100.00;58430.41;5112591;28;20601;-49
2021/07/25 04:49:10;;;;;;;4.32;3.92;;;25.60;49.00;;;-147.20;100.00;58430.41;5093490;28;20462;-48
2021/07/25 04:51:38;;;;;;;4.70;4.25;;;25.70;49.00;;;-147.20;100.00;58430.41;5116413;28;20081;-50
2021/07/25 04:54:10;;;;;;;4.55;3.72;;;25.70;49.00;;;-147.20;100.00;58430.41;5116404;28;20051;-49
2021/07/25 04:56:58;;;;;;;4.75;4.30;;;25.70;49.00;;;-147.20;100.00;58430.41;5116371;28;20048;-46
2021/07/25 04:59:30;;;;;;;4.72;4.28;;;25.70;48.90;;;-147.20;100.00;58430.41;5116498;28;20044;-50
2021/07/25 05:02:07;;;;;;;4.45;4.05;;;25.70;48.90;;;-147.20;100.00;58430.41;5116827;28;20138;-49
2021/07/25 05:04:34;;;;;;;4.32;3.92;;;25.80;48.90;;;-147.20;100.00;58430.41;5116499;28;20043;-48
2021/07/25 05:07:00;;;;;;;3.90;3.60;;;25.80;48.90;;;-147.20;100.00;58430.41;5116254;28;20056;-50
2021/07/25 05:09:26;;;;;;;4.60;4.20;;;25.90;48.70;;;-147.20;100.00;58430.41;5116058;28;20499;-48
2021/07/25 05:12:01;;;;;;;4.10;3.70;;;26.00;48.60;;;-147.20;100.00;58430.41;5116342;28;20047;-46
2021/07/25 05:14:37;;;;;;;4.63;4.07;;;26.00;48.40;;;-147.20;100.00;58430.41;5116579;28;20050;-49
2021/07/25 05:17:14;;;;;;;4.35;3.95;;;26.10;48.30;;;-147.20;100.00;58430.41;5094716;28;20045;-51
2021/07/25 05:19:56;;;;;;;4.60;4.20;;;26.10;48.20;;;-147.20;100.00;58430.41;5097021;28;20126;-50
2021/07/25 05:22:48;;;;;;;3.95;3.58;;;26.20;48.10;;;-147.20;100.00;58430.41;5115902;28;20476;-48
2021/07/25 05:25:17;;;;;;;4.35;3.95;;;26.20;48.00;;;-147.20;100.00;58430.41;5097308;28;20387;-51
2021/07/25 05:27:50;;;;;;;4.43;4.03;;;26.30;48.00;;;-147.20;100.00;58430.41;5115972;28;20058;-51
2021/07/25 05:30:22;;;;;;;4.68;4.18;;;26.30;47.90;;;-147.20;100.00;58430.41;5115736;28;20430;-49
2021/07/25 05:32:49;;;;;;;4.20;3.80;;;26.30;47.80;;;-147.20;100.00;58430.41;5115834;28;20443;-46
2021/07/25 05:35:16;;;;;;;4.20;3.80;;;26.40;47.80;;;-147.20;100.00;58430.41;5116022;28;20074;-52
2021/07/25 05:37:43;;;;;;;4.00;3.60;;;26.40;47.70;;;-147.20;100.00;58430.41;5115529;28;20047;-48
2021/07/25 05:40:11;;;;;;;4.18;3.78;;;26.40;47.60;;;-147.20;100.00;58430.41;5114802;28;20392;-50
2021/07/25 05:42:38;;;;;;;4.47;4.07;;;26.40;47.60;;;-147.20;100.00;58430.41;5115555;28;20130;-46
2021/07/25 05:45:10;;;;;;;3.92;3.60;;;26.50;47.50;;;-147.20;100.00;58430.41;5115543;28;20108;-52
2021/07/25 05:47:37;;;;;;;4.40;4.00;;;26.50;47.40;;;-147.20;100.00;58430.41;5115714;28;20043;-52
2021/07/25 05:50:04;;;;;;;3.78;3.47;;;26.60;47.40;;;-147.20;100.00;58430.41;5097669;28;20097;-49
2021/07/25 05:52:49;;;;;;;3.80;3.50;;;26.60;47.40;;;-147.20;100.00;58430.41;5115604;28;20446;-53
2021/07/25 05:55:25;;;;;;;4.20;3.80;;;26.70;47.30;;;-147.20;100.00;58430.41;5115326;28;20055;-48
2021/07/25 05:57:51;;;;;;;4.30;3.90;;;26.70;47.20;;;-147.20;100.00;58430.41;5115281;28;20487;-51
2021/07/25 06:00:17;;;;;;;3.78;3.47;;;26.80;47.20;;;-147.20;100.00;58430.41;5114909;28;20059;-53
2021/07/25 06:03:01;;;;;;;3.80;3.50;;;26.80;47.10;;;-147.20;100.00;58430.41;5114926;28;20047;-50
2021/07/25 06:05:44;;;;;;;4.55;4.15;;;26.80;47.00;;;-147.20;100.00;58430.41;5115023;28;20096;-48
2021/07/25 06:08:10;;;;;;;4.45;4.00;;;26.90;47.10;;;-147.20;100.00;58430.41;5115185;28;20052;-45
2021/07/25 06:10:42;;;;;;;4.63;3.67;;;26.90;46.90;;;-147.20;100.00;58430.41;5115420;28;20052;-48
2021/07/25 06:13:08;;;;;;;3.85;3.50;;;26.90;46.80;;;-147.20;100.00;58430.41;5115722;28;20054;-49
2021/07/25 06:15:35;;;;;;;5.10;3.30;;;27.00;46.80;;;-147.20;100.00;58430.41;5096421;28;20142;-48
2021/07/25 06:18:02;;;;;;;3.70;3.40;;;27.00;46.70;;;-147.20;100.00;58430.41;5114834;28;20043;-51
2021/07/25 06:20:33;;;;;;;4.00;3.60;;;27.00;46.60;;;-147.20;100.00;58430.41;5114912;28;20043;-46
2021/07/25 06:22:59;;;;;;;4.53;3.87;;;27.10;46.60;;;-147.20;100.00;58430.41;5114780;28;20487;-47
2021/07/25 06:25:32;;;;;;;3.65;3.35;;;27.20;46.50;;;-147.20;100.00;58430.41;5114930;28;20450;-46
2021/07/25 06:28:03;;;;;;;3.67;3.38;;;27.20;46.40;;;-147.20;100.00;58430.41;5095349;28;20498;-47
2021/07/25 06:30:28;;;;;;;3.87;3.57;;;27.30;46.40;;;-147.20;100.00;58430.41;5114713;28;20126;-46
2021/07/25 06:33:06;;;;;;;4.28;3.88;;;27.30;46.40;;;-147.20;100.00;58430.41;5114813;28;20071;-46
2021/07/25 06:35:41;;;;;;;3.80;3.40;;;27.40;46.30;;;-147.20;100.00;58430.41;5097002;28;20097;-45
2021/07/25 06:38:13;;;;;;;3.90;3.50;;;27.40;46.20;;;-147.20;100.00;58430.41;5114688;28;20044;-49
2021/07/25 06:40:42;;;;;;;3.67;3.38;;;27.50;46.00;;;-147.20;100.00;58430.41;5114416;28;20395;-46
2021/07/25 06:43:08;;;;;;;3.33;3.03;;;27.50;46.00;;;-147.20;100.00;58430.41;5114754;28;20039;-45
2021/07/25 06:45:34;;;;;;;3.65;3.33;;;27.60;45.90;;;-147.20;100.00;58430.41;5114932;28;20096;-47
2021/07/25 06:48:01;;;;;;;3.75;3.45;;;27.60;45.80;;;-147.20;100.00;58430.41;5114758;28;20048;-48
2021/07/25 06:50:29;;;;;;;3.50;3.20;;;27.70;45.80;;;-147.20;100.00;58430.41;5114572;28;20071;-45
2021/07/25 06:52:57;;;;;;;3.63;3.33;;;27.70;45.70;;;-147.20;100.00;58430.41;5114739;28;20149;-46
2021/07/25 06:55:27;;;;;;;3.50;3.20;;;27.80;45.60;;;-147.20;100.00;58430.41;5079023;28;20051;-47
2021/07/25 06:57:53;;;;;;;3.60;3.22;;;27.80;45.60;;;-147.20;100.00;58430.41;5114699;28;20043;-52
2021/07/25 07:00:19;;;;;;;4.25;3.85;;;27.90;45.50;;;-147.20;100.00;58430.41;5096045;28;20039;-48
2021/07/25 07:02:54;;;;;;;4.22;3.83;;;27.90;45.40;;;-147.20;100.00;58430.41;5113266;28;20480;-49
2021/07/25 07:05:29;;;;;;;3.78;3.40;;;27.90;45.40;;;-147.20;100.00;58430.41;5095016;28;20574;-49
2021/07/25 07:08:03;;;;;;;3.72;3.33;;;27.90;45.30;;;-147.20;100.00;58430.41;5114875;28;20130;-48
2021/07/25 07:10:32;;;;;;;3.40;3.10;;;28.00;45.80;;;-147.20;100.00;58430.41;5114599;28;20047;-53
2021/07/25 07:13:02;;;;;;;3.60;3.30;;;28.00;45.20;;;-147.20;100.00;58430.41;5114083;27;20122;-50
2021/07/25 07:15:29;;;;;;;3.80;3.42;;;28.00;45.10;;;-147.20;100.00;58430.41;5114001;28;20055;-51
2021/07/25 07:17:57;;;;;;;4.38;3.97;;;28.10;45.10;;;-147.20;100.00;58430.41;5114341;28;20058;-51
2021/07/25 07:20:23;;;;;;;3.88;3.47;;;28.10;45.00;;;-147.20;100.00;58430.41;5111671;28;20051;-51
2021/07/25 07:23:01;;;;;;;3.92;3.53;;;28.10;45.00;;;-147.20;100.00;58430.41;5114055;28;20475;-52
2021/07/25 07:25:34;;;;;;;3.45;3.15;;;28.20;44.90;;;-147.20;100.00;58430.41;5113997;28;20059;-50
2021/07/25 07:28:01;;;;;;;3.78;3.38;;;28.30;44.80;;;-147.20;100.00;58430.41;5114619;28;20047;-49
2021/07/25 07:30:27;;;;;;;3.58;3.28;;;28.30;44.70;;;-147.20;100.00;58430.41;5113793;28;20063;-53
2021/07/25 07:32:52;;;;;;;3.60;3.30;;;28.30;44.60;;;-147.20;100.00;58430.41;5113890;28;20059;-53
2021/07/25 07:35:23;;;;;;;3.60;3.30;;;28.30;44.60;;;-147.20;100.00;58430.41;5113646;28;20403;-53
2021/07/25 07:37:50;;;;;;;3.63;3.33;;;28.40;44.60;;;-147.20;100.00;58430.41;5113851;28;20054;-51
2021/07/25 07:40:17;;;;;;;4.18;3.78;;;28.40;44.40;;;-147.20;100.00;58430.41;5112325;28;20054;-51
2021/07/25 07:42:43;;;;;;;3.75;3.45;;;28.50;44.40;;;-147.20;100.00;58430.41;5113623;28;20055;-49
2021/07/25 07:45:10;;;;;;;3.67;3.33;;;28.50;44.30;;;-147.20;100.00;58430.41;5113939;28;20052;-51
2021/07/25 07:47:36;;;;;;;3.30;3.00;;;28.60;44.20;;;-147.20;100.00;58430.41;5113369;28;20051;-49
2021/07/25 07:50:02;;;;;;;3.63;3.33;;;28.60;44.20;;;-147.20;100.00;58430.41;5113558;28;20048;-54
2021/07/25 07:52:27;;;;;;;3.38;3.08;;;28.60;44.10;;;-147.20;100.00;58430.41;5113531;28;20040;-52
2021/07/25 07:54:53;;;;;;;3.70;3.40;;;28.60;44.20;;;-147.20;100.00;58430.41;5095515;28;20480;-50
2021/07/25 07:57:19;;;;;;;3.70;3.33;;;28.60;44.10;;;-147.20;100.00;58430.41;5093141;28;20480;-50
2021/07/25 07:59:45;;;;;;;4.03;3.63;;;28.60;44.60;;;-147.20;100.00;58430.41;5113460;28;20789;-48
2021/07/25 08:02:10;;;;;;;3.25;2.95;;;28.70;44.00;;;-147.20;100.00;58430.41;5112627;28;20092;-54
2021/07/25 08:04:36;;;;;;;3.65;3.35;;;28.70;44.00;;;-147.20;100.00;58430.41;5113306;28;20104;-51
2021/07/25 08:07:02;;;;;;;3.28;2.97;;;28.70;43.90;;;-147.20;100.00;58430.41;5113213;28;20055;-46
2021/07/25 08:09:28;;;;;;;3.30;3.03;;;28.80;43.90;;;-147.20;100.00;58430.41;5095273;28;20052;-48
2021/07/25 08:11:54;;;;;;;3.35;3.05;;;28.80;43.90;;;-147.20;100.00;58430.41;5113334;28;20070;-48
2021/07/25 08:14:20;;;;;;;3.22;3.00;;;28.80;43.80;;;-147.20;100.00;58430.41;5113109;28;20101;-48
2021/07/25 08:16:48;;;;;;;3.53;3.22;;;28.90;43.80;;;-147.20;100.00;58430.41;5113083;28;20043;-50
2021/07/25 08:19:15;;;;;;;3.40;3.10;;;28.90;43.70;;;-147.20;100.00;58430.41;5113124;28;20542;-49
2021/07/25 08:21:41;;;;;;;3.45;3.15;;;28.90;43.70;;;-147.20;100.00;58430.41;5113471;28;20040;-47
2021/07/25 08:24:08;;;;;;;3.10;2.80;;;28.90;43.70;;;-147.20;100.00;58430.41;5112655;28;20101;-51
2021/07/25 08:26:35;;;;;;;3.58;3.28;;;28.90;43.60;;;-147.20;100.00;58430.41;5113323;28;20055;-52
2021/07/25 08:29:01;;;;;;;3.75;3.45;;;29.00;43.60;;;-147.20;100.00;58430.41;5112889;28;20474;-52
2021/07/25 08:31:26;;;;;;;2.75;2.55;;;28.90;43.60;;;-147.20;100.00;58430.41;5094647;28;20130;-51
2021/07/25 08:33:52;;;;;;;3.50;3.20;;;28.90;43.50;;;-147.20;100.00;58430.41;5113154;28;20058;-50
2021/07/25 08:36:18;;;;;;;3.50;3.20;;;29.00;43.60;;;-147.20;100.00;58430.41;5112984;28;20044;-51
2021/07/25 08:38:45;;;;;;;3.00;2.80;;;28.90;43.50;;;-147.20;100.00;58430.41;5112805;28;20052;-50
2021/07/25 08:42:08;;;;;;;3.50;3.00;;;28.90;43.50;;;-147.20;100.00;58430.41;5094613;28;20043;-50
2021/07/25 08:44:56;;;;;;;3.28;2.97;;;28.90;43.50;;;-147.20;100.00;58430.41;5095772;28;20120;-48
2021/07/25 08:47:33;;;;;;;3.70;3.40;;;28.90;43.60;;;-147.20;100.00;58430.41;5112816;28;20418;-47
2021/07/25 08:50:06;;;;;;;3.17;2.88;;;29.00;43.60;;;-147.20;100.00;58430.41;5112813;28;20102;-49
2021/07/25 08:52:35;;;;;;;3.45;3.15;;;29.00;43.60;;;-147.20;100.00;58430.41;5112715;28;20048;-47
2021/07/25 08:55:06;;;;;;;3.83;3.53;;;28.90;43.60;;;-147.20;100.00;58430.41;5112669;28;20479;-48
2021/07/25 08:57:37;;;;;;;3.65;3.35;;;28.90;43.60;;;-147.20;100.00;58430.41;5094442;28;20105;-50
2021/07/25 09:00:07;;;;;;;3.40;3.10;;;28.90;43.70;;;-147.20;100.00;58430.41;5094512;28;20055;-50
2021/07/25 09:02:34;;;;;;;3.30;3.00;;;28.90;43.70;;;-147.20;100.00;58430.41;5112759;28;20043;-51
2021/07/25 09:05:00;;;;;;;3.47;3.17;;;28.90;43.70;;;-147.20;100.00;58430.41;5112527;28;20048;-50
2021/07/25 09:07:29;;;;;;;3.03;2.83;;;28.90;43.70;;;-147.20;100.00;58430.41;5112284;28;20044;-49
2021/07/25 09:09:57;;;;;;;3.45;3.15;;;28.80;43.70;;;-147.20;100.00;58430.41;5112801;28;20116;-49
2021/07/25 09:12:25;;;;;;;3.53;3.17;;;28.80;43.70;;;-147.20;100.00;58430.41;5111363;28;20464;-53
2021/07/25 09:15:00;;;;;;;3.58;3.28;;;28.90;43.70;;;-147.20;100.00;58430.41;5094412;28;20422;-54
2021/07/25 09:17:27;;;;;;;3.53;3.22;;;28.90;43.80;;;-147.20;100.00;58430.41;5112310;28;20439;-51
2021/07/25 09:20:28;;;;;;;3.60;3.30;;;28.80;43.70;;;-147.20;100.00;58430.41;5112366;28;20475;-48
2021/07/25 09:23:07;;;;;;;3.47;3.17;;;28.80;43.70;;;-147.20;100.00;58430.41;5112967;28;20622;-51
2021/07/25 09:25:55;;;;;;;3.17;2.88;;;28.80;43.70;;;-147.20;100.00;58430.41;5112320;28;20054;-53
2021/07/25 09:28:29;;;;;;;3.00;2.80;;;28.80;43.70;;;-147.20;100.00;58430.41;5111701;28;20058;-50
2021/07/25 09:30:55;;;;;;;3.17;2.90;;;28.80;43.80;;;-147.20;100.00;58430.41;5112579;28;20108;-50
2021/07/25 09:33:28;;;;;;;3.50;3.20;;;28.80;43.70;;;-147.20;100.00;58430.41;5111947;28;20497;-51
2021/07/25 09:36:05;;;;;;;3.60;3.30;;;28.80;43.80;;;-147.20;100.00;58430.41;5112835;28;20056;-50
2021/07/25 09:38:31;;;;;;;3.38;3.08;;;28.80;43.80;;;-147.20;100.00;58430.41;5115819;28;20056;-52
2021/07/25 09:40:57;;;;;;;3.20;2.90;;;28.80;43.80;;;-147.20;100.00;58430.41;5097402;28;20124;-53
2021/07/25 09:43:26;;;;;;;3.38;3.08;;;28.80;43.80;;;-147.20;100.00;58430.41;5115140;28;20098;-50
2021/07/25 09:45:59;;;;;;;3.47;3.17;;;28.80;43.80;;;-147.20;100.00;58430.41;5115610;28;20130;-48
2021/07/25 09:48:34;;;;;;;3.15;2.85;;;28.80;43.80;;;-147.20;100.00;58430.41;5115070;28;20404;-52
2021/07/25 09:51:02;;;;;;;3.40;3.10;;;28.80;43.80;;;-147.20;100.00;58430.41;5115642;28;20058;-54
2021/07/25 09:53:49;;;;;;;3.75;3.45;;;28.80;43.80;;;-147.20;100.00;58430.41;5115169;28;20048;-49
2021/07/25 09:56:23;;;;;;;3.22;2.92;;;28.80;43.80;;;-147.20;100.00;58430.41;5115288;28;20044;-49
2021/07/25 09:58:50;;;;;;;3.25;2.95;;;28.80;43.80;;;-147.20;100.00;58430.41;5113642;28;20052;-48
2021/07/25 10:01:38;;;;;;;3.10;2.83;;;28.80;43.80;;;-147.20;100.00;58430.41;5095747;28;20436;-51
2021/07/25 10:04:13;;;;;;;3.55;3.10;;;28.80;43.80;;;-147.20;100.00;58430.41;5115884;28;20054;-51
2021/07/25 10:06:41;;;;;;;3.08;2.88;;;28.80;43.80;;;-147.20;100.00;58430.41;5115448;28;20498;-48
2021/07/25 10:09:13;;;;;;;3.15;2.85;;;28.80;43.80;;;-147.20;100.00;58430.41;5115583;28;20055;-49